Time;durP1;ratioP1;P1;durP2;ratioP2;P2;SDS_P1;SDS_P2;PMS_P1;PMS_P2;Temp;Humidity;BMP_temperature;BMP_pressure;BME280_temperature;BME280_humidity;BME280_pressure;Samples;Min_cycle;Max_cycle;Signal;HPM_P1;HPM_P2
2023/04/20 00:01:42;;;;;;;8.30;7.23;;;5.80;99.90;;;;;;5181064;28;20692;-48
2023/04/20 00:04:16;;;;;;;9.40;6.90;;;5.90;99.90;;;;;;5178968;28;20211;-50
2023/04/20 00:06:48;;;;;;;10.20;7.27;;;5.80;99.90;;;;;;5181793;28;20187;-50
2023/04/20 00:09:20;;;;;;;9.03;7.10;;;5.80;99.90;;;;;;5181690;28;20459;-49
2023/04/20 00:11:50;;;;;;;11.03;6.60;;;5.80;99.90;;;;;;5183374;28;20526;-49
2023/04/20 00:14:21;;;;;;;10.10;7.43;;;5.80;99.90;;;;;;5178893;28;20971;-48
2023/04/20 00:16:52;;;;;;;11.63;7.47;;;5.70;99.90;;;;;;5176587;28;20201;-49
2023/04/20 00:19:22;;;;;;;10.90;7.77;;;5.80;99.90;;;;;;5179461;28;20191;-49
2023/04/20 00:21:53;;;;;;;6.70;6.10;;;5.80;99.90;;;;;;5168663;28;20195;-51
2023/04/20 00:24:24;;;;;;;7.80;7.00;;;5.70;99.90;;;;;;5189130;28;20214;-49
2023/04/20 00:26:55;;;;;;;12.57;6.27;;;5.80;99.90;;;;;;5175261;28;20546;-49
2023/04/20 00:29:27;;;;;;;10.43;7.37;;;5.70;99.90;;;;;;5174343;28;20282;-49
2023/04/20 00:31:58;;;;;;;7.77;6.80;;;5.80;99.90;;;;;;5172320;28;20453;-48
2023/04/20 00:34:28;;;;;;;12.30;6.33;;;5.80;99.90;;;;;;5183986;28;20789;-49
2023/04/20 00:36:59;;;;;;;7.07;5.73;;;5.80;99.90;;;;;;5180969;28;20246;-50
2023/04/20 00:39:29;;;;;;;6.70;5.83;;;5.80;99.90;;;;;;5182496;28;20768;-48
2023/04/20 00:42:07;;;;;;;5.77;5.27;;;5.80;99.90;;;;;;5184495;28;20273;-48
2023/04/20 00:44:38;;;;;;;9.47;6.27;;;5.80;99.90;;;;;;5180556;28;20246;-50
2023/04/20 00:47:09;;;;;;;7.77;5.73;;;5.80;99.90;;;;;;5173956;28;20446;-49
2023/04/20 00:49:39;;;;;;;6.83;6.07;;;5.80;99.90;;;;;;5183439;28;20181;-50
2023/04/20 00:52:10;;;;;;;6.67;5.90;;;5.80;99.90;;;;;;5173705;28;20270;-50
2023/04/20 00:54:41;;;;;;;10.80;5.80;;;5.80;99.90;;;;;;5181093;28;20645;-49
2023/04/20 00:57:18;;;;;;;8.40;6.80;;;5.90;99.90;;;;;;5181357;28;20208;-50
2023/04/20 00:59:52;;;;;;;5.90;5.40;;;5.90;99.90;;;;;;5195275;28;20446;-50
2023/04/20 01:02:23;;;;;;;5.10;4.70;;;5.90;99.90;;;;;;5183555;28;20528;-49
2023/04/20 01:04:55;;;;;;;5.90;5.40;;;5.80;99.90;;;;;;5185298;28;21035;-48
2023/04/20 01:07:25;;;;;;;6.27;5.63;;;5.90;99.90;;;;;;5166993;28;20202;-50
2023/04/20 01:09:56;;;;;;;6.27;5.67;;;5.80;99.90;;;;;;5177179;28;20468;-49
2023/04/20 01:12:27;;;;;;;9.40;6.53;;;5.80;99.90;;;;;;5183446;28;20202;-49
2023/04/20 01:14:58;;;;;;;11.50;7.90;;;5.80;99.90;;;;;;5181677;28;20203;-49
2023/04/20 01:17:30;;;;;;;6.33;5.73;;;5.90;99.90;;;;;;5183487;28;20553;-48
2023/04/20 01:20:01;;;;;;;6.13;5.00;;;5.90;99.90;;;;;;5184172;28;20459;-49
2023/04/20 01:22:32;;;;;;;9.73;6.77;;;5.90;99.90;;;;;;5181321;28;20502;-48
2023/04/20 01:25:02;;;;;;;6.73;6.03;;;5.90;99.90;;;;;;5177556;28;20196;-49
2023/04/20 01:27:33;;;;;;;7.33;6.63;;;5.90;99.90;;;;;;5176637;28;20215;-49
2023/04/20 01:30:04;;;;;;;12.77;6.90;;;5.90;99.90;;;;;;5183567;28;20271;-48
2023/04/20 01:32:35;;;;;;;8.33;6.73;;;5.90;99.90;;;;;;5181928;28;20184;-49
2023/04/20 01:35:07;;;;;;;6.97;6.33;;;6.00;99.90;;;;;;5172631;28;20455;-50
2023/04/20 01:37:39;;;;;;;8.50;7.23;;;5.90;99.90;;;;;;5178247;28;20208;-50
2023/04/20 01:40:11;;;;;;;9.50;6.93;;;5.90;99.90;;;;;;5181312;28;20439;-50
2023/04/20 01:42:42;;;;;;;11.90;8.00;;;5.90;99.90;;;;;;5179409;28;20581;-50
2023/04/20 01:45:13;;;;;;;8.90;7.50;;;5.90;99.90;;;;;;5182641;28;20873;-50
2023/04/20 01:47:43;;;;;;;8.40;7.27;;;5.90;99.90;;;;;;5183177;28;20262;-52
2023/04/20 01:50:14;;;;;;;8.47;7.57;;;5.90;99.90;;;;;;5175018;28;20177;-50
2023/04/20 01:52:44;;;;;;;7.90;7.10;;;6.00;99.90;;;;;;5180390;28;20195;-49
2023/04/20 01:55:15;;;;;;;7.73;7.03;;;6.00;99.90;;;;;;5182097;28;20263;-49
2023/04/20 01:57:46;;;;;;;7.67;6.93;;;6.00;99.90;;;;;;5183281;28;20211;-50
2023/04/20 02:00:17;;;;;;;12.03;7.87;;;5.90;99.90;;;;;;5180404;28;20282;-50
2023/04/20 02:02:48;;;;;;;9.60;7.40;;;5.90;99.90;;;;;;5176538;28;20219;-49
2023/04/20 02:05:18;;;;;;;11.43;8.13;;;5.90;99.90;;;;;;5181786;28;20446;-51
2023/04/20 02:07:50;;;;;;;8.80;7.07;;;5.90;99.90;;;;;;5178688;28;20215;-49
2023/04/20 02:10:20;;;;;;;9.83;8.07;;;5.80;99.90;;;;;;5169756;28;20277;-50
2023/04/20 02:12:51;;;;;;;8.87;7.80;;;5.80;99.90;;;;;;5178603;28;21055;-49
2023/04/20 02:15:21;;;;;;;8.10;6.97;;;5.90;99.90;;;;;;5181271;28;20222;-49
2023/04/20 02:17:52;;;;;;;10.47;8.30;;;5.90;99.90;;;;;;5181003;28;20298;-49
2023/04/20 02:20:23;;;;;;;9.63;7.67;;;5.90;99.90;;;;;;5179339;28;20194;-49
2023/04/20 02:22:54;;;;;;;11.63;8.20;;;6.00;99.90;;;;;;5176938;28;20210;-49
2023/04/20 02:25:24;;;;;;;8.87;7.97;;;5.90;99.90;;;;;;5182776;28;20439;-51
2023/04/20 02:27:55;;;;;;;12.77;9.50;;;6.00;99.90;;;;;;5180217;28;20283;-49
2023/04/20 02:30:26;;;;;;;15.37;8.80;;;6.00;99.90;;;;;;5177815;28;20181;-50
2023/04/20 02:32:58;;;;;;;12.27;9.17;;;5.90;99.90;;;;;;5171959;28;20526;-50
2023/04/20 02:35:28;;;;;;;11.50;8.50;;;5.90;99.90;;;;;;5179217;28;20181;-50
2023/04/20 02:37:59;;;;;;;13.50;10.30;;;6.00;99.90;;;;;;5180152;28;21037;-49
2023/04/20 02:40:30;;;;;;;16.37;9.70;;;6.00;99.90;;;;;;5180552;28;20525;-49
2023/04/20 02:43:00;;;;;;;12.83;9.23;;;6.00;99.90;;;;;;5180970;28;20215;-49
2023/04/20 02:45:31;;;;;;;15.10;10.80;;;6.00;99.90;;;;;;5172867;28;20195;-50
2023/04/20 02:48:02;;;;;;;17.80;10.27;;;6.10;99.90;;;;;;5182229;28;20718;-50
2023/04/20 02:50:34;;;;;;;11.10;9.33;;;6.10;99.90;;;;;;5174696;28;20447;-50
2023/04/20 02:53:04;;;;;;;15.30;10.07;;;6.10;99.90;;;;;;5177231;28;20605;-49
2023/04/20 02:55:35;;;;;;;11.90;10.20;;;6.10;99.90;;;;;;5180224;28;20451;-49
2023/04/20 02:58:06;;;;;;;14.77;10.40;;;6.10;99.90;;;;;;5177488;28;20200;-49
2023/04/20 03:00:36;;;;;;;18.43;11.27;;;6.10;99.90;;;;;;5176271;28;20234;-50
2023/04/20 03:03:07;;;;;;;13.30;9.40;;;6.10;99.90;;;;;;5178675;28;20207;-50
2023/04/20 03:05:37;;;;;;;15.73;11.07;;;6.20;99.90;;;;;;5161678;28;20220;-49
2023/04/20 03:08:08;;;;;;;13.57;10.83;;;6.10;99.90;;;;;;5176642;28;20266;-49
2023/04/20 03:10:39;;;;;;;14.70;11.00;;;6.10;99.90;;;;;;5180374;28;20208;-50
2023/04/20 03:13:09;;;;;;;14.73;10.47;;;6.20;99.90;;;;;;5178553;28;20188;-49
2023/04/20 03:15:41;;;;;;;23.80;11.80;;;6.10;99.90;;;;;;5177325;28;20234;-49
2023/04/20 03:18:11;;;;;;;19.80;11.63;;;6.10;99.90;;;;;;5184576;28;20230;-50
2023/04/20 03:20:42;;;;;;;17.30;12.60;;;6.20;99.90;;;;;;5180983;28;20435;-49
2023/04/20 03:23:12;;;;;;;18.57;12.70;;;6.20;99.90;;;;;;5181585;28;20207;-50
2023/04/20 03:25:45;;;;;;;17.60;11.80;;;6.20;99.90;;;;;;5178159;28;20192;-48
2023/04/20 03:28:15;;;;;;;20.10;12.50;;;6.10;99.90;;;;;;5175517;28;20299;-49
2023/04/20 03:30:46;;;;;;;16.93;13.10;;;6.20;99.90;;;;;;5182517;28;20525;-48
2023/04/20 03:33:17;;;;;;;18.20;12.47;;;6.20;99.90;;;;;;5185317;28;20644;-50
2023/04/20 03:35:47;;;;;;;20.57;13.40;;;6.20;99.90;;;;;;5182534;28;20250;-50
2023/04/20 03:38:18;;;;;;;26.97;14.67;;;6.30;99.90;;;;;;5182150;28;20208;-49
2023/04/20 03:40:48;;;;;;;36.20;17.53;;;6.20;99.90;;;;;;5180063;28;20191;-48
2023/04/20 03:43:19;;;;;;;25.37;15.90;;;6.20;99.90;;;;;;5181583;28;20227;-49
2023/04/20 03:45:49;;;;;;;36.17;16.87;;;6.20;99.90;;;;;;5178785;28;20667;-49
2023/04/20 03:48:20;;;;;;;26.90;17.40;;;6.20;99.90;;;;;;5177684;28;20205;-47
2023/04/20 03:50:51;;;;;;;40.30;18.60;;;6.10;99.90;;;;;;5180323;28;20269;-49
2023/04/20 03:53:21;;;;;;;29.90;19.80;;;6.10;99.90;;;;;;5186372;28;20180;-49
2023/04/20 03:55:52;;;;;;;27.73;18.70;;;6.10;99.90;;;;;;5180287;28;20236;-49
2023/04/20 03:58:23;;;;;;;32.30;18.33;;;6.00;99.90;;;;;;5182612;28;20223;-50
2023/04/20 04:01:05;;;;;;;30.90;18.23;;;6.10;99.90;;;;;;5175469;28;20196;-49
2023/04/20 04:03:36;;;;;;;30.63;19.43;;;6.10;99.90;;;;;;5183375;28;20334;-49
2023/04/20 04:06:07;;;;;;;32.30;17.77;;;6.10;99.90;;;;;;5181774;28;20436;-50
2023/04/20 04:08:38;;;;;;;42.03;19.37;;;6.10;99.90;;;;;;5170891;28;20233;-48
2023/04/20 04:11:09;;;;;;;31.50;18.80;;;6.20;99.90;;;;;;5182203;28;20438;-49
2023/04/20 04:13:39;;;;;;;30.13;18.60;;;6.20;99.90;;;;;;5186044;28;20202;-50
2023/04/20 04:16:10;;;;;;;36.73;18.30;;;6.20;99.90;;;;;;5185432;28;20231;-48
2023/04/20 04:18:44;;;;;;;33.83;18.97;;;6.20;99.90;;;;;;5181501;28;20262;-48
2023/04/20 04:21:14;;;;;;;29.87;16.63;;;6.20;99.90;;;;;;5184629;28;20226;-48
2023/04/20 04:23:45;;;;;;;35.83;17.93;;;6.20;99.90;;;;;;5175937;28;20506;-50
2023/04/20 04:26:17;;;;;;;31.33;16.43;;;6.20;99.90;;;;;;5178018;28;20252;-49
2023/04/20 04:28:48;;;;;;;39.53;18.83;;;6.20;99.90;;;;;;5177489;28;20732;-49
2023/04/20 04:31:20;;;;;;;33.90;17.53;;;6.20;99.90;;;;;;5177670;28;20851;-51
2023/04/20 04:33:50;;;;;;;35.27;18.53;;;6.30;99.90;;;;;;5181559;28;20441;-50
2023/04/20 04:36:25;;;;;;;33.70;19.20;;;6.30;99.90;;;;;;5186019;28;20430;-50
2023/04/20 04:38:56;;;;;;;30.23;15.83;;;6.30;99.90;;;;;;5183680;28;20248;-51
2023/04/20 04:41:27;;;;;;;33.63;17.03;;;6.30;99.90;;;;;;5180021;28;20446;-49
2023/04/20 04:43:58;;;;;;;33.93;18.60;;;6.30;99.90;;;;;;5184124;28;20700;-49
2023/04/20 04:46:28;;;;;;;55.80;19.50;;;6.30;99.90;;;;;;5184252;28;20492;-51
2023/04/20 04:49:03;;;;;;;36.00;17.97;;;6.30;99.90;;;;;;5184163;28;20276;-49
2023/04/20 04:51:34;;;;;;;40.43;21.03;;;6.30;99.90;;;;;;5179350;28;20191;-50
2023/04/20 04:54:04;;;;;;;33.20;18.83;;;6.30;99.90;;;;;;5184326;28;20465;-50
2023/04/20 04:56:35;;;;;;;45.50;18.83;;;6.30;99.90;;;;;;5182335;28;20440;-49
2023/04/20 04:59:06;;;;;;;37.40;19.47;;;6.30;99.90;;;;;;5178870;28;20289;-49
2023/04/20 05:01:36;;;;;;;46.83;20.30;;;6.40;99.90;;;;;;5171462;28;20288;-48
2023/04/20 05:04:07;;;;;;;34.07;19.90;;;6.40;99.90;;;;;;5174227;28;20242;-50
2023/04/20 05:06:38;;;;;;;34.07;18.40;;;6.30;99.90;;;;;;5176718;28;20188;-57
2023/04/20 05:09:08;;;;;;;38.97;21.47;;;6.40;99.90;;;;;;5180840;28;20219;-49
2023/04/20 05:11:39;;;;;;;31.97;19.90;;;6.40;99.90;;;;;;5182557;28;20215;-51
2023/04/20 05:14:10;;;;;;;28.63;17.17;;;6.40;99.90;;;;;;5190394;28;20187;-51
2023/04/20 05:16:40;;;;;;;33.20;18.27;;;6.50;99.90;;;;;;5183018;28;20203;-50
2023/04/20 05:19:11;;;;;;;43.23;19.23;;;6.50;99.90;;;;;;5175631;28;20219;-50
2023/04/20 05:21:42;;;;;;;31.03;18.60;;;6.50;99.90;;;;;;5183452;28;20636;-49
2023/04/20 05:24:12;;;;;;;31.57;19.00;;;6.50;99.90;;;;;;5174464;28;20243;-49
2023/04/20 05:26:43;;;;;;;38.10;19.50;;;6.50;99.90;;;;;;5178849;28;20201;-50
2023/04/20 05:29:14;;;;;;;36.27;17.90;;;6.50;99.90;;;;;;5180238;28;20206;-51
2023/04/20 05:31:46;;;;;;;34.83;17.83;;;6.50;99.90;;;;;;5166654;28;20195;-50
2023/04/20 05:34:17;;;;;;;28.53;18.20;;;6.50;99.90;;;;;;5179030;28;20495;-50
2023/04/20 05:36:48;;;;;;;35.70;19.47;;;6.60;99.90;;;;;;5178039;28;20436;-50
2023/04/20 05:39:18;;;;;;;24.77;16.67;;;6.60;99.90;;;;;;5175536;28;20685;-49
2023/04/20 05:41:49;;;;;;;32.00;16.93;;;6.70;99.90;;;;;;5171443;28;20275;-51
2023/04/20 05:44:19;;;;;;;28.90;17.57;;;6.70;99.90;;;;;;5173592;28;20231;-50
2023/04/20 05:46:50;;;;;;;28.57;17.27;;;6.80;99.90;;;;;;5172135;28;20530;-50
2023/04/20 05:49:21;;;;;;;30.83;17.63;;;6.90;99.90;;;;;;5193133;28;20188;-50
2023/04/20 05:51:51;;;;;;;29.57;17.23;;;6.90;99.90;;;;;;5182267;28;20186;-51
2023/04/20 05:54:22;;;;;;;27.10;16.17;;;6.90;99.90;;;;;;5183621;28;20220;-49
2023/04/20 05:56:57;;;;;;;31.87;17.17;;;6.90;99.90;;;;;;5179730;28;20563;-50
2023/04/20 05:59:28;;;;;;;33.37;17.80;;;7.00;99.90;;;;;;5175153;28;20187;-49
2023/04/20 06:01:58;;;;;;;29.70;17.97;;;7.00;99.90;;;;;;5180883;28;20445;-49
2023/04/20 06:04:29;;;;;;;35.40;19.30;;;7.00;99.90;;;;;;5181591;28;20216;-49
2023/04/20 06:07:00;;;;;;;31.67;17.30;;;7.10;99.90;;;;;;5181757;28;20207;-50
2023/04/20 06:09:30;;;;;;;31.73;18.10;;;7.00;99.90;;;;;;5188518;28;21269;-50
2023/04/20 06:12:01;;;;;;;32.03;18.13;;;7.10;99.90;;;;;;5173048;28;20184;-50
2023/04/20 06:14:32;;;;;;;27.77;18.07;;;7.10;99.90;;;;;;5173186;28;20185;-50
2023/04/20 06:17:02;;;;;;;36.10;18.90;;;7.10;99.90;;;;;;5175342;28;20238;-51
2023/04/20 06:19:33;;;;;;;28.73;17.73;;;7.10;99.90;;;;;;5174614;28;20292;-49
2023/04/20 06:22:07;;;;;;;35.10;17.10;;;7.10;99.90;;;;;;5180436;28;20192;-49
2023/04/20 06:24:41;;;;;;;28.63;17.80;;;7.20;99.90;;;;;;5179806;28;20208;-50
2023/04/20 06:27:11;;;;;;;30.83;18.07;;;7.20;99.90;;;;;;5180884;28;20454;-52
2023/04/20 06:29:42;;;;;;;31.67;18.57;;;7.20;99.90;;;;;;5180420;28;20578;-51
2023/04/20 06:32:13;;;;;;;31.87;17.83;;;7.20;99.90;;;;;;5181078;28;20191;-52
2023/04/20 06:34:43;;;;;;;27.47;17.60;;;7.30;99.90;;;;;;5179978;28;20546;-50
2023/04/20 06:37:14;;;;;;;24.90;16.13;;;7.20;99.90;;;;;;5178937;28;20283;-51
2023/04/20 06:39:45;;;;;;;32.13;17.33;;;7.20;99.90;;;;;;5179946;28;20180;-51
2023/04/20 06:42:16;;;;;;;33.40;16.55;;;7.20;99.90;;;;;;5181395;28;20184;-49
2023/04/20 06:44:47;;;;;;;29.83;16.87;;;7.20;99.90;;;;;;5179613;28;20196;-48
2023/04/20 06:47:17;;;;;;;27.43;16.37;;;7.30;99.90;;;;;;5180281;28;20876;-51
2023/04/20 06:49:48;;;;;;;25.60;16.83;;;7.40;99.90;;;;;;5185692;28;20267;-49
2023/04/20 06:52:19;;;;;;;29.87;18.67;;;7.40;99.90;;;;;;5187507;28;20226;-50
2023/04/20 06:54:49;;;;;;;31.83;18.40;;;7.50;99.90;;;;;;5168766;28;20628;-49
2023/04/20 06:57:20;;;;;;;42.90;20.07;;;7.50;99.90;;;;;;5187301;28;20201;-50
2023/04/20 06:59:50;;;;;;;29.20;18.63;;;7.50;99.90;;;;;;5186403;28;20242;-49
2023/04/20 07:02:21;;;;;;;34.90;20.37;;;7.60;99.90;;;;;;5184679;28;20184;-49
2023/04/20 07:04:52;;;;;;;33.60;20.87;;;7.70;99.90;;;;;;5186388;28;20184;-49
2023/04/20 07:07:22;;;;;;;33.37;19.33;;;7.90;99.90;;;;;;5187273;28;20212;-50
2023/04/20 07:09:53;;;;;;;38.60;20.53;;;8.20;99.90;;;;;;5184821;28;20223;-49
2023/04/20 07:12:23;;;;;;;24.77;15.60;;;8.80;99.90;;;;;;5185630;28;20183;-48
2023/04/20 07:14:54;;;;;;;26.87;17.03;;;9.90;99.90;;;;;;5186971;28;20179;-49
2023/04/20 07:17:27;;;;;;;30.73;16.83;;;10.30;99.90;;;;;;5187596;28;20233;-50
2023/04/20 07:20:04;;;;;;;23.30;16.33;;;10.00;99.90;;;;;;5176151;28;20188;-52
2023/04/20 07:22:35;;;;;;;25.43;16.37;;;9.70;99.90;;;;;;5191904;28;21071;-47
2023/04/20 07:25:08;;;;;;;21.47;14.77;;;9.40;99.90;;;;;;5190690;28;20430;-49
2023/04/20 07:27:40;;;;;;;24.60;16.93;;;9.20;99.90;;;;;;5182569;28;20489;-49
2023/04/20 07:30:11;;;;;;;20.00;14.40;;;9.60;99.90;;;;;;5185344;28;20439;-48
2023/04/20 07:32:41;;;;;;;20.63;14.87;;;10.30;99.90;;;;;;5179667;28;20451;-49
2023/04/20 07:35:12;;;;;;;20.10;14.13;;;10.40;99.90;;;;;;5181317;28;21196;-51
2023/04/20 07:37:43;;;;;;;28.33;15.10;;;9.80;99.90;;;;;;5155896;28;20278;-48
2023/04/20 07:40:15;;;;;;;19.10;12.47;;;9.50;99.90;;;;;;5185495;28;20175;-49
2023/04/20 07:42:46;;;;;;;23.90;15.27;;;9.40;99.90;;;;;;5184016;28;20254;-52
2023/04/20 07:45:18;;;;;;;20.63;14.50;;;9.30;99.90;;;;;;5185273;28;20459;-48
2023/04/20 07:47:50;;;;;;;20.60;13.27;;;9.20;99.90;;;;;;5184424;28;20239;-49
2023/04/20 07:50:21;;;;;;;22.30;15.00;;;9.10;99.90;;;;;;5179860;28;20493;-49
2023/04/20 07:52:51;;;;;;;22.60;14.43;;;9.30;99.90;;;;;;5174351;28;20435;-50
2023/04/20 07:55:22;;;;;;;28.53;14.60;;;9.40;99.90;;;;;;5181225;28;20914;-50
2023/04/20 07:57:52;;;;;;;17.93;12.40;;;9.40;99.90;;;;;;5183520;28;20223;-48
2023/04/20 08:00:24;;;;;;;18.17;12.80;;;9.20;99.90;;;;;;5180663;28;20729;-51
2023/04/20 08:02:54;;;;;;;21.30;14.67;;;9.20;99.90;;;;;;5180081;28;20213;-49
2023/04/20 08:05:25;;;;;;;19.63;12.83;;;9.00;99.90;;;;;;5181434;28;20805;-50
2023/04/20 08:07:57;;;;;;;22.87;13.97;;;9.00;99.90;;;;;;5195954;28;20205;-49
2023/04/20 08:10:28;;;;;;;19.97;14.03;;;9.00;99.90;;;;;;5166848;28;21005;-52
2023/04/20 08:12:59;;;;;;;20.50;13.70;;;9.00;99.90;;;;;;5181300;28;20439;-50
2023/04/20 08:15:30;;;;;;;24.87;15.17;;;9.00;99.90;;;;;;5177706;28;20185;-48
2023/04/20 08:18:00;;;;;;;18.63;12.50;;;9.70;99.90;;;;;;5185249;28;20283;-49
2023/04/20 08:20:31;;;;;;;15.63;11.60;;;10.70;99.90;;;;;;5179930;28;20446;-49
2023/04/20 08:23:02;;;;;;;17.57;12.77;;;11.00;99.90;;;;;;5180035;28;20208;-50
2023/04/20 08:25:32;;;;;;;14.17;11.03;;;10.70;99.90;;;;;;5178304;28;20218;-50
2023/04/20 08:28:03;;;;;;;21.40;12.70;;;10.80;99.90;;;;;;5180825;28;20698;-50
2023/04/20 08:30:34;;;;;;;14.07;9.97;;;10.40;99.90;;;;;;5179111;28;20189;-49
2023/04/20 08:33:05;;;;;;;17.10;11.40;;;10.30;99.90;;;;;;5188579;28;20216;-49
2023/04/20 08:35:35;;;;;;;16.90;12.60;;;10.00;99.90;;;;;;5177871;28;20671;-53
2023/04/20 08:38:06;;;;;;;22.53;12.47;;;9.80;99.90;;;;;;5181455;28;20458;-51
2023/04/20 08:40:37;;;;;;;22.37;13.50;;;9.60;99.90;;;;;;5159646;28;20192;-49
2023/04/20 08:43:07;;;;;;;17.63;12.83;;;9.40;99.90;;;;;;5177665;28;20208;-51
2023/04/20 08:45:40;;;;;;;22.83;13.73;;;9.30;99.90;;;;;;5172030;28;20196;-51
2023/04/20 08:48:11;;;;;;;19.60;13.43;;;9.20;99.90;;;;;;5181179;28;20197;-51
2023/04/20 08:50:42;;;;;;;20.47;13.17;;;9.00;99.90;;;;;;5173946;28;20446;-50
2023/04/20 08:53:13;;;;;;;18.80;12.50;;;9.00;99.90;;;;;;5177196;28;20855;-50
2023/04/20 08:55:43;;;;;;;21.53;14.23;;;8.90;99.90;;;;;;5174455;28;20827;-50
2023/04/20 08:58:15;;;;;;;16.97;13.83;;;8.70;99.90;;;;;;5179912;28;20232;-52
2023/04/20 09:00:49;;;;;;;24.47;12.73;;;8.60;99.90;;;;;;5177749;28;20276;-51
2023/04/20 09:03:41;;;;;;;23.83;14.47;;;8.40;99.90;;;;;;5174498;28;20462;-51
2023/04/20 09:06:16;;;;;;;26.67;13.80;;;8.30;99.90;;;;;;5171885;28;20539;-49
2023/04/20 09:08:48;;;;;;;24.90;16.67;;;8.20;99.90;;;;;;5176202;28;20496;-50
2023/04/20 09:11:27;;;;;;;28.17;16.30;;;8.10;99.90;;;;;;5179511;28;20966;-51
2023/04/20 09:13:58;;;;;;;34.13;14.10;;;8.10;99.90;;;;;;5177323;28;20550;-49
2023/04/20 09:16:30;;;;;;;29.03;16.73;;;8.10;99.90;;;;;;5171481;28;20522;-50
2023/04/20 09:19:00;;;;;;;27.90;17.07;;;8.10;99.90;;;;;;5180637;28;20545;-48
2023/04/20 09:21:31;;;;;;;27.03;15.63;;;8.10;99.90;;;;;;5180984;28;20518;-49
2023/04/20 09:24:07;;;;;;;23.77;15.20;;;7.90;99.90;;;;;;5179209;28;20204;-51
2023/04/20 09:26:37;;;;;;;24.27;16.90;;;7.90;99.90;;;;;;5169713;28;20450;-48
2023/04/20 09:29:19;;;;;;;25.80;15.67;;;7.90;99.90;;;;;;5177925;28;20451;-51
2023/04/20 09:31:50;;;;;;;22.60;14.20;;;8.00;99.90;;;;;;5171433;28;20246;-50
2023/04/20 09:34:22;;;;;;;25.63;15.00;;;8.00;99.90;;;;;;5170549;28;20494;-50
2023/04/20 09:36:54;;;;;;;24.03;16.20;;;8.10;99.90;;;;;;5174622;28;20447;-49
2023/04/20 09:39:25;;;;;;;24.80;16.10;;;8.10;99.90;;;;;;5176467;28;20435;-49
2023/04/20 09:42:04;;;;;;;25.23;16.80;;;8.20;99.90;;;;;;5174711;28;20480;-48
2023/04/20 09:44:37;;;;;;;23.53;15.93;;;8.40;99.90;;;;;;5179219;28;20577;-50
2023/04/20 09:47:15;;;;;;;28.07;16.00;;;8.60;99.90;;;;;;5192706;28;20498;-49
2023/04/20 09:49:46;;;;;;;20.77;15.67;;;8.70;99.90;;;;;;5172709;28;20931;-51
2023/04/20 09:52:17;;;;;;;18.57;13.30;;;8.90;99.90;;;;;;5177143;28;20450;-50
2023/04/20 09:54:50;;;;;;;22.37;15.13;;;9.20;99.90;;;;;;5170899;28;20435;-48
2023/04/20 09:57:21;;;;;;;19.73;14.30;;;9.30;99.90;;;;;;5174030;28;20861;-50
2023/04/20 09:59:55;;;;;;;20.33;14.13;;;9.60;99.90;;;;;;5171276;28;20514;-49
2023/04/20 10:02:26;;;;;;;19.27;14.00;;;9.60;99.90;;;;;;5171725;28;20376;-50
2023/04/20 10:04:58;;;;;;;22.87;13.90;;;9.70;99.90;;;;;;5171738;28;20447;-50
2023/04/20 10:07:31;;;;;;;17.40;12.93;;;9.90;99.90;;;;;;5176383;28;20208;-52
2023/04/20 10:10:15;;;;;;;17.53;12.57;;;10.20;99.90;;;;;;5175752;28;20549;-49
2023/04/20 10:12:51;;;;;;;17.23;12.90;;;10.40;99.90;;;;;;5173852;28;20523;-49
2023/04/20 10:15:26;;;;;;;16.00;12.60;;;10.90;99.90;;;;;;5169073;28;20434;-50
2023/04/20 10:17:57;;;;;;;15.30;11.20;;;11.20;99.90;;;;;;5171802;28;20473;-51
2023/04/20 10:20:28;;;;;;;19.03;11.23;;;11.80;99.90;;;;;;5172743;28;20979;-50
2023/04/20 10:23:10;;;;;;;14.10;11.00;;;12.00;99.90;;;;;;5177126;28;20327;-49
2023/04/20 10:25:41;;;;;;;15.13;10.70;;;12.00;99.90;;;;;;5175630;28;20530;-51
2023/04/20 10:28:12;;;;;;;16.60;11.07;;;11.80;99.90;;;;;;5179512;28;20455;-49
2023/04/20 10:30:50;;;;;;;11.00;9.90;;;11.80;99.90;;;;;;5170956;28;20432;-49
2023/04/20 10:33:21;;;;;;;11.83;9.57;;;11.70;99.90;;;;;;5174381;28;20620;-48
2023/04/20 10:35:54;;;;;;;11.03;9.83;;;11.50;99.90;;;;;;5173749;28;20554;-48
2023/04/20 10:38:33;;;;;;;13.10;10.47;;;11.50;99.90;;;;;;5174677;28;20475;-49
2023/04/20 10:41:11;;;;;;;12.17;9.60;;;11.40;99.90;;;;;;5182160;28;20452;-49
2023/04/20 10:43:42;;;;;;;15.90;10.33;;;11.20;99.90;;;;;;5179374;28;20788;-49
2023/04/20 10:46:17;;;;;;;11.97;10.73;;;11.00;99.90;;;;;;5179230;28;20441;-49
2023/04/20 10:48:53;;;;;;;12.53;8.57;;;11.30;99.90;;;;;;5176931;28;20196;-49
2023/04/20 10:51:24;;;;;;;9.10;8.20;;;11.40;99.90;;;;;;5178733;28;20447;-48
2023/04/20 10:54:07;;;;;;;13.87;10.17;;;11.40;99.90;;;;;;5182191;28;20973;-50
2023/04/20 10:56:50;;;;;;;12.37;9.67;;;11.30;99.90;;;;;;5178151;28;20537;-50
2023/04/20 10:59:23;;;;;;;20.70;10.67;;;11.40;99.90;;;;;;5177657;28;20491;-50
2023/04/20 11:01:54;;;;;;;12.63;10.70;;;11.60;99.90;;;;;;5180474;28;20434;-48
2023/04/20 11:04:31;;;;;;;11.53;10.30;;;11.60;99.90;;;;;;5167985;28;20775;-52
2023/04/20 11:07:12;;;;;;;15.47;10.87;;;11.70;99.90;;;;;;5179657;28;20181;-52
2023/04/20 11:09:42;;;;;;;11.60;10.00;;;12.00;99.90;;;;;;5176882;28;20455;-51
2023/04/20 11:12:16;;;;;;;14.70;10.90;;;12.20;99.90;;;;;;5192447;28;20486;-49
2023/04/20 11:14:51;;;;;;;13.10;10.90;;;12.30;99.90;;;;;;5174430;28;20210;-50
2023/04/20 11:17:33;;;;;;;12.27;10.70;;;12.30;99.90;;;;;;5169843;28;20474;-52
2023/04/20 11:20:12;;;;;;;17.13;11.30;;;12.50;99.90;;;;;;5176173;28;20928;-51
2023/04/20 11:22:43;;;;;;;16.33;11.53;;;12.40;99.90;;;;;;5178837;28;20442;-50
2023/04/20 11:25:13;;;;;;;15.43;11.53;;;12.60;99.90;;;;;;5176464;28;20447;-49
2023/04/20 11:27:44;;;;;;;20.50;13.13;;;12.40;99.90;;;;;;5176263;28;20320;-50
2023/04/20 11:30:15;;;;;;;22.43;14.27;;;12.40;99.90;;;;;;5168140;28;20189;-51
2023/04/20 11:32:53;;;;;;;15.20;11.93;;;12.20;99.90;;;;;;5172611;28;20188;-52
2023/04/20 11:35:23;;;;;;;16.90;11.77;;;12.30;99.90;;;;;;5172459;28;20226;-51
2023/04/20 11:37:56;;;;;;;14.93;10.63;;;12.40;99.90;;;;;;5173858;28;20541;-49
2023/04/20 11:40:27;;;;;;;17.63;12.37;;;12.30;99.90;;;;;;5179728;28;20177;-51
2023/04/20 11:42:58;;;;;;;19.93;13.57;;;12.20;99.90;;;;;;5178725;28;20934;-48
2023/04/20 11:45:33;;;;;;;19.80;12.70;;;12.40;99.90;;;;;;5172693;28;20216;-51
2023/04/20 11:48:04;;;;;;;22.83;12.50;;;12.30;99.90;;;;;;5173485;28;20786;-51
2023/04/20 11:50:36;;;;;;;13.60;11.10;;;12.30;99.90;;;;;;5183343;28;20431;-50
2023/04/20 11:53:08;;;;;;;18.10;12.33;;;12.30;99.90;;;;;;5179869;28;20458;-49
2023/04/20 11:55:40;;;;;;;19.73;12.67;;;12.40;99.90;;;;;;5178386;28;20438;-52
2023/04/20 11:58:11;;;;;;;26.70;12.87;;;12.40;99.90;;;;;;5176776;28;20463;-50
2023/04/20 12:00:41;;;;;;;16.50;12.10;;;12.50;99.90;;;;;;5178783;28;20447;-50
2023/04/20 12:03:12;;;;;;;27.03;12.93;;;12.60;99.90;;;;;;5173103;28;20220;-49
2023/04/20 12:05:43;;;;;;;18.63;12.37;;;12.70;99.90;;;;;;5173692;28;20238;-50
2023/04/20 12:08:16;;;;;;;26.40;13.03;;;12.70;99.90;;;;;;5175470;28;20223;-50
2023/04/20 12:10:46;;;;;;;17.83;12.70;;;12.80;99.90;;;;;;5179533;28;20195;-49
2023/04/20 12:13:17;;;;;;;18.43;12.73;;;12.70;99.90;;;;;;5182108;28;20835;-51
2023/04/20 12:15:48;;;;;;;17.07;12.90;;;12.70;99.90;;;;;;5177845;28;20196;-51
2023/04/20 12:18:19;;;;;;;17.90;12.73;;;12.70;99.90;;;;;;5179539;28;20235;-49
2023/04/20 12:20:50;;;;;;;17.47;13.40;;;12.70;99.90;;;;;;5179289;28;20189;-49
2023/04/20 12:23:21;;;;;;;13.03;11.63;;;12.70;99.90;;;;;;5195188;28;20851;-51
2023/04/20 12:25:51;;;;;;;14.73;10.90;;;12.90;99.90;;;;;;5185171;28;20424;-49
2023/04/20 12:28:22;;;;;;;14.03;10.97;;;13.00;99.90;;;;;;5181175;28;20203;-49
2023/04/20 12:30:53;;;;;;;16.20;11.80;;;13.00;99.90;;;;;;5180463;28;20180;-50
2023/04/20 12:33:23;;;;;;;14.23;10.97;;;12.90;99.90;;;;;;5182606;28;20700;-52
2023/04/20 12:35:54;;;;;;;25.07;11.00;;;12.90;99.90;;;;;;5179193;28;20185;-50
2023/04/20 12:38:24;;;;;;;15.63;10.17;;;12.90;99.90;;;;;;5175154;28;20575;-50
2023/04/20 12:40:55;;;;;;;14.53;11.10;;;12.80;99.90;;;;;;5177495;28;20189;-51
2023/04/20 12:43:26;;;;;;;17.50;12.47;;;12.80;99.90;;;;;;5181917;28;20660;-50
2023/04/20 12:45:56;;;;;;;16.17;11.60;;;12.70;99.90;;;;;;5176939;28;20776;-50
2023/04/20 12:48:27;;;;;;;19.00;11.83;;;13.00;99.90;;;;;;5180601;28;20203;-49
2023/04/20 12:50:57;;;;;;;18.70;12.47;;;13.10;99.90;;;;;;5177357;28;20195;-50
2023/04/20 12:53:28;;;;;;;13.83;11.47;;;13.30;99.90;;;;;;5177019;28;20862;-50
2023/04/20 12:55:59;;;;;;;14.57;11.50;;;13.80;99.90;;;;;;5182129;28;20239;-51
2023/04/20 12:58:30;;;;;;;12.97;11.37;;;13.90;99.90;;;;;;5172015;28;20712;-50
2023/04/20 13:01:01;;;;;;;16.67;11.33;;;14.20;99.90;;;;;;5193760;28;20609;-49